Time;durP1;ratioP1;P1;durP2;ratioP2;P2;SDS_P1;SDS_P2;PMS_P1;PMS_P2;Temp;Humidity;BMP_temperature;BMP_pressure;BME280_temperature;BME280_humidity;BME280_pressure;Samples;Min_cycle;Max_cycle;Signal;HPM_P1;HPM_P2
2023/12/29 00:01:24;;;;;;;;;;;10.20;99.90;;;;;;5072614;28;20002;-36
2023/12/29 00:03:51;;;;;;;;;;;10.10;99.90;;;;;;5084620;28;20465;-34
2023/12/29 00:06:18;;;;;;;;;;;10.10;99.90;;;;;;5071614;28;19998;-36
2023/12/29 00:08:44;;;;;;;;;;;10.10;99.90;;;;;;5074842;28;19936;-35
2023/12/29 00:11:18;;;;;;;;;;;10.10;99.90;;;;;;5093535;28;19940;-34
2023/12/29 00:13:45;;;;;;;;;;;10.10;99.90;;;;;;5074025;28;19997;-34
2023/12/29 00:16:11;;;;;;;;;;;10.10;99.90;;;;;;5073155;28;19947;-34
2023/12/29 00:18:38;;;;;;;;;;;10.10;99.90;;;;;;5074915;28;19954;-34
2023/12/29 00:21:05;;;;;;;;;;;10.10;99.90;;;;;;5068597;28;19942;-33
2023/12/29 00:23:31;;;;;;;;;;;10.10;99.90;;;;;;5090584;28;20370;-34
2023/12/29 00:25:58;;;;;;;;;;;10.00;99.90;;;;;;5074490;28;19924;-36
2023/12/29 00:28:26;;;;;;;;;;;10.00;99.90;;;;;;5085838;28;19925;-34
2023/12/29 00:30:52;;;;;;;;;;;10.10;99.90;;;;;;5093367;28;19981;-35
2023/12/29 00:33:19;;;;;;;;;;;10.00;99.90;;;;;;5075113;28;19941;-33
2023/12/29 00:35:46;;;;;;;;;;;10.00;99.90;;;;;;5073210;28;19985;-35
2023/12/29 00:38:12;;;;;;;;;;;10.00;99.90;;;;;;5077939;28;20441;-35
2023/12/29 00:40:39;;;;;;;;;;;10.00;99.90;;;;;;5099971;28;19982;-34
2023/12/29 00:43:06;;;;;;;;;;;9.90;99.90;;;;;;5073124;28;19946;-34
2023/12/29 00:45:35;;;;;;;;;;;9.90;99.90;;;;;;5051154;28;20081;-34
2023/12/29 00:48:02;;;;;;;;;;;9.90;99.90;;;;;;5088930;28;19995;-34
2023/12/29 00:50:29;;;;;;;;;;;9.80;99.90;;;;;;5058757;28;20005;-35
2023/12/29 00:52:56;;;;;;;;;;;9.80;99.90;;;;;;5060719;28;19970;-34
2023/12/29 00:55:22;;;;;;;;;;;9.80;99.90;;;;;;5070152;28;19937;-34
2023/12/29 00:57:49;;;;;;;;;;;9.80;99.90;;;;;;5092359;28;20023;-35
2023/12/29 01:00:16;;;;;;;;;;;9.80;99.90;;;;;;5073584;28;20415;-34
2023/12/29 01:02:44;;;;;;;;;;;9.80;99.90;;;;;;5071824;28;19939;-35
2023/12/29 01:05:10;;;;;;;;;;;9.70;99.90;;;;;;5092092;28;19989;-35
2023/12/29 01:07:37;;;;;;;;;;;9.70;99.90;;;;;;5074189;28;19989;-34
2023/12/29 01:10:04;;;;;;;;;;;9.70;99.90;;;;;;5086422;28;19997;-33
2023/12/29 01:12:31;;;;;;;;;;;9.70;99.90;;;;;;5078132;28;19988;-34
2023/12/29 01:14:57;;;;;;;;;;;9.70;99.90;;;;;;5083688;28;20034;-34
2023/12/29 01:17:24;;;;;;;;;;;9.70;99.90;;;;;;5089323;28;19956;-34
2023/12/29 01:19:52;;;;;;;;;;;9.70;99.90;;;;;;5073088;28;19943;-33
2023/12/29 01:22:19;;;;;;;;;;;9.70;99.90;;;;;;5090148;28;19996;-33
2023/12/29 01:24:45;;;;;;;;;;;9.70;99.90;;;;;;5090664;28;19940;-35
2023/12/29 01:27:12;;;;;;;;;;;9.70;99.90;;;;;;5073893;28;19944;-31
2023/12/29 01:29:39;;;;;;;;;;;9.70;99.90;;;;;;5070957;28;19997;-34
2023/12/29 01:32:07;;;;;;;;;;;9.70;99.90;;;;;;5073266;28;20411;-33
2023/12/29 01:34:34;;;;;;;;;;;9.70;99.90;;;;;;5088524;28;19943;-34
2023/12/29 01:37:02;;;;;;;;;;;9.70;99.90;;;;;;5070943;28;19975;-34
2023/12/29 01:39:29;;;;;;;;;;;9.70;99.90;;;;;;5090484;28;20459;-34
2023/12/29 01:41:56;;;;;;;;;;;9.60;99.90;;;;;;5069612;28;20048;-34
2023/12/29 01:44:23;;;;;;;;;;;9.70;99.90;;;;;;5072540;28;19928;-35
2023/12/29 01:46:52;;;;;;;;;;;9.60;99.90;;;;;;5089210;28;20353;-34
2023/12/29 01:49:19;;;;;;;;;;;9.70;99.90;;;;;;5088323;28;19936;-34
2023/12/29 01:51:47;;;;;;;;;;;9.70;99.90;;;;;;5059983;28;20399;-34
2023/12/29 01:54:15;;;;;;;;;;;9.70;99.90;;;;;;5060492;28;19937;-34
2023/12/29 01:56:41;;;;;;;;;;;9.70;99.90;;;;;;5074386;28;20000;-36
2023/12/29 01:59:08;;;;;;;;;;;9.60;99.90;;;;;;5068563;28;19956;-33
2023/12/29 02:01:35;;;;;;;;;;;9.70;99.90;;;;;;5091179;28;20451;-34
2023/12/29 02:04:02;;;;;;;;;;;9.70;99.90;;;;;;5071297;28;19978;-34
2023/12/29 02:06:28;;;;;;;;;;;9.70;99.90;;;;;;5091932;28;20350;-34
2023/12/29 02:08:55;;;;;;;;;;;9.70;99.90;;;;;;5077059;28;19989;-34
2023/12/29 02:11:23;;;;;;;;;;;9.70;99.90;;;;;;5077716;28;19986;-33
2023/12/29 02:13:49;;;;;;;;;;;9.70;99.90;;;;;;5065590;28;19939;-33
2023/12/29 02:16:17;;;;;;;;;;;9.70;99.90;;;;;;5078814;28;19946;-35
2023/12/29 02:18:43;;;;;;;;;;;9.70;99.90;;;;;;5085236;28;20011;-35
2023/12/29 02:21:10;;;;;;;;;;;9.80;99.90;;;;;;5076870;28;19961;-34
2023/12/29 02:23:37;;;;;;;;;;;9.80;99.90;;;;;;5076615;28;20469;-34
2023/12/29 02:26:07;;;;;;;;;;;9.80;99.90;;;;;;5077182;28;20035;-33
2023/12/29 02:28:33;;;;;;;;;;;9.80;99.90;;;;;;5076044;28;19943;-35
2023/12/29 02:31:01;;;;;;;;;;;9.80;99.90;;;;;;5075244;28;20354;-34
2023/12/29 02:33:28;;;;;;;;;;;9.80;99.90;;;;;;5077262;28;19940;-34
2023/12/29 02:35:56;;;;;;;;;;;9.90;99.90;;;;;;5092854;28;19949;-35
2023/12/29 02:38:22;;;;;;;;;;;9.90;99.90;;;;;;5088854;28;19954;-33
2023/12/29 02:40:49;;;;;;;;;;;9.90;99.90;;;;;;5094587;28;19943;-35
2023/12/29 02:43:17;;;;;;;;;;;9.90;99.90;;;;;;5093890;28;19988;-33
2023/12/29 02:45:44;;;;;;;;;;;9.90;99.90;;;;;;5077166;28;19966;-33
2023/12/29 02:48:10;;;;;;;;;;;9.80;99.90;;;;;;5070368;28;19985;-33
2023/12/29 02:50:37;;;;;;;;;;;9.80;99.90;;;;;;5079706;28;19988;-35
2023/12/29 02:53:04;;;;;;;;;;;9.80;99.90;;;;;;5072767;28;20465;-34
2023/12/29 02:55:31;;;;;;;;;;;9.80;99.90;;;;;;5076174;28;19956;-34
2023/12/29 02:57:58;;;;;;;;;;;9.80;99.90;;;;;;5073056;28;20051;-34
2023/12/29 03:00:26;;;;;;;;;;;9.80;99.90;;;;;;5069309;28;19941;-34
2023/12/29 03:02:52;;;;;;;;;;;9.90;99.90;;;;;;5088026;28;19955;-33
2023/12/29 03:05:19;;;;;;;;;;;9.90;99.90;;;;;;5076126;28;20340;-34
2023/12/29 03:07:45;;;;;;;;;;;9.80;99.90;;;;;;5076309;28;20398;-35
2023/12/29 03:10:12;;;;;;;;;;;9.80;99.90;;;;;;5072709;28;19942;-33
2023/12/29 03:12:39;;;;;;;;;;;9.80;99.90;;;;;;5067971;28;19942;-36
2023/12/29 03:15:06;;;;;;;;;;;9.80;99.90;;;;;;5075113;28;20003;-34
2023/12/29 03:17:34;;;;;;;;;;;9.80;99.90;;;;;;5074726;28;20382;-33
2023/12/29 03:20:02;;;;;;;;;;;9.80;99.90;;;;;;5091481;28;19999;-34
2023/12/29 03:22:28;;;;;;;;;;;9.80;99.90;;;;;;5075318;28;19985;-36
2023/12/29 03:24:55;;;;;;;;;;;9.80;99.90;;;;;;5093776;28;20357;-34
2023/12/29 03:27:21;;;;;;;;;;;9.80;99.90;;;;;;5093421;28;20408;-33
2023/12/29 03:29:48;;;;;;;;;;;9.80;99.90;;;;;;5071994;28;20021;-34
2023/12/29 03:32:15;;;;;;;;;;;9.80;99.90;;;;;;5092755;28;20281;-34
2023/12/29 03:34:43;;;;;;;;;;;9.80;99.90;;;;;;5073536;28;19960;-34
2023/12/29 03:37:10;;;;;;;;;;;9.70;99.90;;;;;;5094186;28;20308;-35
2023/12/29 03:39:36;;;;;;;;;;;9.70;99.90;;;;;;5090741;28;19953;-34
2023/12/29 03:42:03;;;;;;;;;;;9.80;99.90;;;;;;5074727;28;19987;-34
2023/12/29 03:44:30;;;;;;;;;;;9.70;99.90;;;;;;5071351;28;20370;-36
2023/12/29 03:46:56;;;;;;;;;;;9.70;99.90;;;;;;5073810;28;19991;-36
2023/12/29 03:49:23;;;;;;;;;;;9.70;99.90;;;;;;5090573;28;19988;-37
2023/12/29 03:51:51;;;;;;;;;;;9.70;99.90;;;;;;5075959;28;19924;-34
2023/12/29 03:54:19;;;;;;;;;;;9.70;99.90;;;;;;5070406;28;19938;-34
2023/12/29 03:56:46;;;;;;;;;;;9.70;99.90;;;;;;5075319;28;19938;-35
2023/12/29 03:59:13;;;;;;;;;;;9.70;99.90;;;;;;5074609;28;20038;-33
2023/12/29 04:01:40;;;;;;;;;;;9.60;99.90;;;;;;5072975;28;20028;-35
2023/12/29 04:04:06;;;;;;;;;;;9.60;99.90;;;;;;5093318;28;19939;-35
2023/12/29 04:06:33;;;;;;;;;;;9.70;99.90;;;;;;5075134;28;20010;-35
2023/12/29 04:09:01;;;;;;;;;;;9.60;99.90;;;;;;5071207;28;19937;-35
2023/12/29 04:11:28;;;;;;;;;;;9.60;99.90;;;;;;5073946;28;19935;-35
2023/12/29 04:13:54;;;;;;;;;;;9.60;99.90;;;;;;5093020;28;19969;-34
2023/12/29 04:16:21;;;;;;;;;;;9.60;99.90;;;;;;5088505;28;19936;-35
2023/12/29 04:18:47;;;;;;;;;;;9.50;99.90;;;;;;5065613;28;20002;-34
2023/12/29 04:21:14;;;;;;;;;;;9.50;99.90;;;;;;5070897;28;19990;-35
2023/12/29 04:23:41;;;;;;;;;;;9.60;99.90;;;;;;5092966;28;19936;-36
2023/12/29 04:26:09;;;;;;;;;;;9.50;99.90;;;;;;5092695;28;19946;-34
2023/12/29 04:28:36;;;;;;;;;;;9.50;99.90;;;;;;5069265;28;20000;-33
2023/12/29 04:31:02;;;;;;;;;;;9.50;99.90;;;;;;5069303;28;19987;-34
2023/12/29 04:33:29;;;;;;;;;;;9.50;99.90;;;;;;5074691;28;19971;-35
2023/12/29 04:35:56;;;;;;;;;;;9.50;99.90;;;;;;5070429;28;19981;-34
2023/12/29 04:38:22;;;;;;;;;;;9.50;99.90;;;;;;5074362;28;19952;-33
2023/12/29 04:40:49;;;;;;;;;;;9.50;99.90;;;;;;5072989;28;20496;-34
2023/12/29 04:43:17;;;;;;;;;;;9.50;99.90;;;;;;5074201;28;19928;-35
2023/12/29 04:45:43;;;;;;;;;;;9.50;99.90;;;;;;5069338;28;19959;-34
2023/12/29 04:48:10;;;;;;;;;;;9.40;99.90;;;;;;5098705;28;19931;-34
2023/12/29 04:50:37;;;;;;;;;;;9.40;99.90;;;;;;5090741;28;19986;-35
2023/12/29 04:53:03;;;;;;;;;;;9.40;99.90;;;;;;5065408;28;19941;-33
2023/12/29 04:55:30;;;;;;;;;;;9.40;99.90;;;;;;5075009;28;19942;-34
2023/12/29 04:57:57;;;;;;;;;;;9.40;99.90;;;;;;5073240;28;20013;-35
2023/12/29 05:00:25;;;;;;;;;;;9.40;99.90;;;;;;5072588;28;20322;-34
2023/12/29 05:02:51;;;;;;;;;;;9.40;99.90;;;;;;5068169;28;19946;-35
2023/12/29 05:05:18;;;;;;;;;;;9.40;99.90;;;;;;5087842;28;20283;-34
2023/12/29 05:07:45;;;;;;;;;;;9.40;99.90;;;;;;5091403;28;19938;-35
2023/12/29 05:10:11;;;;;;;;;;;9.40;99.90;;;;;;5074522;28;19981;-34
2023/12/29 05:12:38;;;;;;;;;;;9.40;99.90;;;;;;5074603;28;19984;-35
2023/12/29 05:15:05;;;;;;;;;;;9.40;99.90;;;;;;5091310;28;19924;-34
2023/12/29 05:17:33;;;;;;;;;;;9.40;99.90;;;;;;5073807;28;19980;-35
2023/12/29 05:20:00;;;;;;;;;;;9.50;99.90;;;;;;5073607;28;19990;-34
2023/12/29 05:22:26;;;;;;;;;;;9.50;99.90;;;;;;5068589;28;20457;-34
2023/12/29 05:24:57;;;;;;;;;;;9.50;99.90;;;;;;5074121;28;19978;-34
2023/12/29 05:27:24;;;;;;;;;;;9.50;99.90;;;;;;5074407;28;19994;-34
2023/12/29 05:29:50;;;;;;;;;;;9.50;99.90;;;;;;5090140;28;20327;-35
2023/12/29 05:32:17;;;;;;;;;;;9.50;99.90;;;;;;5070695;28;20010;-35
2023/12/29 05:34:45;;;;;;;;;;;9.50;99.90;;;;;;5085332;28;20339;-34
2023/12/29 05:37:12;;;;;;;;;;;9.50;99.90;;;;;;5087756;28;19946;-34
2023/12/29 05:39:39;;;;;;;;;;;9.50;99.90;;;;;;5092321;28;20299;-34
2023/12/29 05:42:05;;;;;;;;;;;9.50;99.90;;;;;;5088933;28;19924;-34
2023/12/29 05:44:32;;;;;;;;;;;9.50;99.90;;;;;;5095952;28;19960;-34
2023/12/29 05:46:59;;;;;;;;;;;9.50;99.90;;;;;;5091350;28;19947;-34
2023/12/29 05:49:26;;;;;;;;;;;9.40;99.90;;;;;;5094135;28;19947;-35
2023/12/29 05:51:54;;;;;;;;;;;9.40;99.90;;;;;;5070798;28;20343;-35
2023/12/29 05:54:20;;;;;;;;;;;9.40;99.90;;;;;;5078207;28;20303;-35
2023/12/29 05:56:47;;;;;;;;;;;9.40;99.90;;;;;;5076477;28;19956;-35
2023/12/29 05:59:14;;;;;;;;;;;9.40;99.90;;;;;;5074965;28;19952;-35
2023/12/29 06:01:41;;;;;;;;;;;9.30;99.90;;;;;;5087247;28;19946;-34
2023/12/29 06:04:07;;;;;;;;;;;9.40;99.90;;;;;;5076496;28;19948;-35
2023/12/29 06:06:34;;;;;;;;;;;9.30;99.90;;;;;;5078071;28;19943;-34
2023/12/29 06:09:02;;;;;;;;;;;9.30;99.90;;;;;;5076244;28;19940;-35
2023/12/29 06:11:29;;;;;;;;;;;9.30;99.90;;;;;;5075148;28;19945;-35
2023/12/29 06:13:55;;;;;;;;;;;9.20;99.90;;;;;;5094247;28;20372;-34
2023/12/29 06:16:23;;;;;;;;;;;9.30;99.90;;;;;;5086969;28;19955;-34
2023/12/29 06:18:50;;;;;;;;;;;9.30;99.90;;;;;;5076881;28;19968;-35
2023/12/29 06:21:16;;;;;;;;;;;9.30;99.90;;;;;;5073875;28;19942;-35
2023/12/29 06:23:43;;;;;;;;;;;9.30;99.90;;;;;;5075381;28;19944;-34
2023/12/29 06:26:17;;;;;;;;;;;9.30;99.90;;;;;;5095289;28;19949;-34
2023/12/29 06:28:44;;;;;;;;;;;9.30;99.90;;;;;;5076627;28;20556;-35
2023/12/29 06:31:11;;;;;;;;;;;9.30;99.90;;;;;;5090923;28;19956;-34
2023/12/29 06:33:38;;;;;;;;;;;9.40;99.90;;;;;;5093554;28;19962;-34
2023/12/29 06:36:04;;;;;;;;;;;9.30;99.90;;;;;;5076890;28;20399;-34
2023/12/29 06:38:33;;;;;;;;;;;9.40;99.90;;;;;;5093277;28;19936;-35
2023/12/29 06:41:00;;;;;;;;;;;9.30;99.90;;;;;;5077129;28;19939;-34
2023/12/29 06:43:28;;;;;;;;;;;9.40;99.90;;;;;;5076323;28;19935;-34
2023/12/29 06:45:55;;;;;;;;;;;9.30;99.90;;;;;;5088050;28;19934;-34
2023/12/29 06:48:21;;;;;;;;;;;9.30;99.90;;;;;;5094305;28;19937;-36
2023/12/29 06:50:48;;;;;;;;;;;9.30;99.90;;;;;;5069434;28;19965;-36
2023/12/29 06:53:15;;;;;;;;;;;9.30;99.90;;;;;;5076328;28;19939;-34
2023/12/29 06:55:42;;;;;;;;;;;9.30;99.90;;;;;;5094119;28;20390;-33
2023/12/29 06:58:09;;;;;;;;;;;9.30;99.90;;;;;;5092162;28;19938;-34
2023/12/29 07:00:37;;;;;;;;;;;9.30;99.90;;;;;;5070616;28;19964;-35
2023/12/29 07:03:03;;;;;;;;;;;9.30;99.90;;;;;;5051550;28;19938;-35
2023/12/29 07:05:30;;;;;;;;;;;9.30;99.90;;;;;;5092022;28;19944;-34
2023/12/29 07:07:57;;;;;;;;;;;9.30;99.90;;;;;;5092847;28;20384;-34
2023/12/29 07:10:24;;;;;;;;;;;9.30;99.90;;;;;;5093986;28;19937;-35
2023/12/29 07:12:50;;;;;;;;;;;9.30;99.90;;;;;;5075962;28;19942;-35
2023/12/29 07:15:17;;;;;;;;;;;9.30;99.90;;;;;;5075746;28;19964;-36
2023/12/29 07:17:45;;;;;;;;;;;9.30;99.90;;;;;;5088170;28;19924;-33
2023/12/29 07:20:12;;;;;;;;;;;9.30;99.90;;;;;;5068288;28;19958;-35
2023/12/29 07:22:39;;;;;;;;;;;9.30;99.90;;;;;;5070720;28;20261;-35
2023/12/29 07:25:06;;;;;;;;;;;9.30;99.90;;;;;;5068277;28;19954;-33
2023/12/29 07:27:33;;;;;;;;;;;9.30;99.90;;;;;;5075141;28;19943;-34
2023/12/29 07:29:59;;;;;;;;;;;9.30;99.90;;;;;;5067886;28;19940;-32
2023/12/29 07:32:26;;;;;;;;;;;9.30;99.90;;;;;;5087208;28;20753;-36
2023/12/29 07:34:55;;;;;;;;;;;9.30;99.90;;;;;;5079068;28;19940;-34
2023/12/29 07:37:22;;;;;;;;;;;9.30;99.90;;;;;;5095539;28;19943;-35
2023/12/29 07:39:49;;;;;;;;;;;9.20;99.90;;;;;;5075417;28;19954;-34
2023/12/29 07:42:17;;;;;;;;;;;9.20;99.90;;;;;;5091759;28;19946;-35
2023/12/29 07:44:43;;;;;;;;;;;9.20;99.90;;;;;;5065635;28;20009;-34
2023/12/29 07:47:11;;;;;;;;;;;9.30;99.90;;;;;;5071445;28;19939;-34
2023/12/29 07:49:38;;;;;;;;;;;9.20;99.90;;;;;;5070055;28;20004;-35
2023/12/29 07:52:06;;;;;;;;;;;9.30;99.90;;;;;;5082636;28;19959;-33
2023/12/29 07:54:33;;;;;;;;;;;9.30;99.90;;;;;;5082760;28;19936;-35
2023/12/29 07:57:00;;;;;;;;;;;9.20;99.90;;;;;;5083506;28;19945;-35
2023/12/29 07:59:26;;;;;;;;;;;9.30;99.90;;;;;;5067135;28;19960;-35
2023/12/29 08:01:53;;;;;;;;;;;9.40;99.90;;;;;;5042260;28;19941;-35
2023/12/29 08:04:19;;;;;;;;;;;9.30;99.90;;;;;;5054163;28;20004;-35
2023/12/29 08:06:46;;;;;;;;;;;9.30;99.90;;;;;;5073633;28;20433;-35
2023/12/29 08:09:14;;;;;;;;;;;9.30;99.90;;;;;;5076124;28;19934;-35
2023/12/29 08:11:42;;;;;;;;;;;9.30;99.90;;;;;;5077418;28;20349;-34
2023/12/29 08:14:09;;;;;;;;;;;9.40;99.90;;;;;;5054579;28;19944;-35
2023/12/29 08:16:38;;;;;;;;;;;9.40;99.90;;;;;;5077518;28;20352;-33
2023/12/29 08:19:05;;;;;;;;;;;9.40;99.90;;;;;;5075679;28;19989;-34
2023/12/29 08:21:31;;;;;;;;;;;9.40;99.90;;;;;;5062654;28;19944;-35
2023/12/29 08:23:58;;;;;;;;;;;9.40;99.90;;;;;;5091241;28;19988;-34
2023/12/29 08:26:26;;;;;;;;;;;9.40;99.90;;;;;;5068015;28;19962;-35
2023/12/29 08:28:53;;;;;;;;;;;9.40;99.90;;;;;;5060334;28;20019;-33
2023/12/29 08:31:20;;;;;;;;;;;9.50;99.90;;;;;;5081145;28;20287;-36
2023/12/29 08:33:47;;;;;;;;;;;9.50;99.90;;;;;;5074729;28;20040;-34
2023/12/29 08:36:14;;;;;;;;;;;9.50;99.90;;;;;;5062752;28;19936;-34
2023/12/29 08:38:40;;;;;;;;;;;9.50;99.90;;;;;;5054033;28;19943;-34
2023/12/29 08:41:07;;;;;;;;;;;9.50;99.90;;;;;;5051673;28;20319;-34
2023/12/29 08:43:36;;;;;;;;;;;9.50;99.90;;;;;;5066285;28;20363;-34
2023/12/29 08:46:03;;;;;;;;;;;9.50;99.90;;;;;;5078328;28;20405;-34
2023/12/29 08:48:30;;;;;;;;;;;9.50;99.90;;;;;;5070662;28;19997;-34
2023/12/29 08:50:57;;;;;;;;;;;9.60;99.90;;;;;;5072730;28;19949;-34
2023/12/29 08:53:24;;;;;;;;;;;9.60;99.90;;;;;;5090901;28;19924;-34
2023/12/29 08:55:50;;;;;;;;;;;9.60;99.90;;;;;;5071461;28;19992;-36
2023/12/29 08:58:17;;;;;;;;;;;9.60;99.90;;;;;;5090681;28;19940;-34
2023/12/29 09:00:45;;;;;;;;;;;9.60;99.90;;;;;;5072848;28;19960;-34
2023/12/29 09:03:12;;;;;;;;;;;9.50;99.90;;;;;;5092192;28;19943;-35
2023/12/29 09:05:38;;;;;;;;;;;9.40;99.90;;;;;;5077987;28;20014;-36
2023/12/29 09:08:05;;;;;;;;;;;9.40;99.90;;;;;;5081365;28;19949;-34
2023/12/29 09:10:32;;;;;;;;;;;9.40;99.90;;;;;;5067319;28;20017;-35
2023/12/29 09:12:58;;;;;;;;;;;9.50;99.90;;;;;;5071616;28;19941;-35
2023/12/29 09:15:25;;;;;;;;;;;9.40;99.90;;;;;;5054262;28;19995;-34
2023/12/29 09:17:53;;;;;;;;;;;9.40;99.90;;;;;;5060751;28;19943;-34
2023/12/29 09:20:20;;;;;;;;;;;9.40;99.90;;;;;;5073313;28;19958;-34
2023/12/29 09:22:46;;;;;;;;;;;9.40;99.90;;;;;;5073789;28;19936;-35
2023/12/29 09:25:13;;;;;;;;;;;9.40;99.90;;;;;;5063392;28;20345;-35
2023/12/29 09:27:40;;;;;;;;;;;9.40;99.90;;;;;;5067227;28;19939;-35
2023/12/29 09:30:07;;;;;;;;;;;9.40;99.90;;;;;;5074482;28;20001;-34
2023/12/29 09:32:34;;;;;;;;;;;9.40;99.90;;;;;;5070074;28;19945;-35
2023/12/29 09:35:03;;;;;;;;;;;9.40;99.90;;;;;;5091525;28;19938;-35
2023/12/29 09:37:29;;;;;;;;;;;9.40;99.90;;;;;;5074625;28;19987;-34
2023/12/29 09:39:56;;;;;;;;;;;9.50;99.90;;;;;;5090709;28;19955;-35
2023/12/29 09:42:24;;;;;;;;;;;9.50;99.90;;;;;;5089788;28;19939;-35
2023/12/29 09:44:50;;;;;;;;;;;9.50;99.90;;;;;;5072609;28;20005;-35
2023/12/29 09:47:17;;;;;;;;;;;9.50;99.90;;;;;;5074635;28;19975;-33
2023/12/29 09:49:44;;;;;;;;;;;9.50;99.90;;;;;;5091912;28;20368;-33
2023/12/29 09:52:12;;;;;;;;;;;9.50;99.90;;;;;;5073732;28;20298;-34
2023/12/29 09:54:38;;;;;;;;;;;9.60;99.90;;;;;;5073215;28;20177;-34
2023/12/29 09:57:05;;;;;;;;;;;9.50;99.90;;;;;;5092092;28;19989;-34
2023/12/29 09:59:33;;;;;;;;;;;9.60;99.90;;;;;;5074020;28;19938;-35
2023/12/29 10:01:59;;;;;;;;;;;9.60;99.90;;;;;;5073459;28;20406;-35
2023/12/29 10:04:26;;;;;;;;;;;9.60;99.90;;;;;;5074071;28;19924;-36
2023/12/29 10:06:52;;;;;;;;;;;9.60;99.90;;;;;;5073110;28;19993;-35
2023/12/29 10:09:21;;;;;;;;;;;9.60;99.90;;;;;;5091218;28;19979;-36
2023/12/29 10:11:48;;;;;;;;;;;9.60;99.90;;;;;;5073136;28;19944;-34
2023/12/29 10:14:19;;;;;;;;;;;9.60;99.90;;;;;;5073593;28;20022;-34
2023/12/29 10:16:46;;;;;;;;;;;9.60;99.90;;;;;;5073064;28;19962;-34
2023/12/29 10:19:15;;;;;;;;;;;9.60;99.90;;;;;;5073738;28;20231;-34
2023/12/29 10:21:45;;;;;;;;;;;9.60;99.90;;;;;;5091005;28;20317;-36
2023/12/29 10:24:13;;;;;;;;;;;9.60;99.90;;;;;;5074034;28;20256;-33
2023/12/29 10:26:43;;;;;;;;;;;9.60;99.90;;;;;;5092302;28;20380;-33
2023/12/29 10:29:10;;;;;;;;;;;9.60;99.90;;;;;;5095411;28;20309;-33
2023/12/29 10:31:37;;;;;;;;;;;9.60;99.90;;;;;;5077343;28;19939;-35
2023/12/29 10:34:17;;;;;;;;;;;9.60;99.90;;;;;;5097538;28;20343;-34
2023/12/29 10:36:47;;;;;;;;;;;9.60;99.90;;;;;;5097816;28;19942;-34
2023/12/29 10:39:15;;;;;;;;;;;9.70;99.90;;;;;;5098815;28;20001;-34
2023/12/29 10:41:43;;;;;;;;;;;9.70;99.90;;;;;;5084190;28;19952;-36
2023/12/29 10:44:09;;;;;;;;;;;9.70;99.90;;;;;;5097415;28;20390;-34
2023/12/29 10:46:39;;;;;;;;;;;9.70;99.90;;;;;;5115728;28;19942;-34
2023/12/29 10:49:10;;;;;;;;;;;9.70;99.90;;;;;;5085499;28;19936;-33
2023/12/29 10:51:37;;;;;;;;;;;9.70;99.90;;;;;;5075796;28;19939;-36
2023/12/29 10:54:03;;;;;;;;;;;9.60;99.90;;;;;;5075583;28;19960;-33
2023/12/29 10:56:30;;;;;;;;;;;9.70;99.90;;;;;;5077283;28;19993;-34
2023/12/29 10:59:03;;;;;;;;;;;9.60;99.90;;;;;;5076915;28;20035;-34
2023/12/29 11:01:30;;;;;;;;;;;9.60;99.90;;;;;;5076876;28;20437;-33
2023/12/29 11:04:03;;;;;;;;;;;9.50;99.90;;;;;;5075759;28;19944;-34
2023/12/29 11:06:30;;;;;;;;;;;9.50;99.90;;;;;;5094092;28;19998;-34
2023/12/29 11:08:56;;;;;;;;;;;9.50;99.90;;;;;;5076597;28;20465;-35
2023/12/29 11:11:23;;;;;;;;;;;9.50;99.90;;;;;;5076811;28;19974;-35
2023/12/29 11:13:50;;;;;;;;;;;9.60;99.90;;;;;;5075974;28;20410;-34
2023/12/29 11:16:21;;;;;;;;;;;9.60;99.90;;;;;;5076718;28;19948;-34
2023/12/29 11:18:48;;;;;;;;;;;9.60;99.90;;;;;;5094034;28;19938;-33
2023/12/29 11:21:14;;;;;;;;;;;9.60;99.90;;;;;;5066807;28;20001;-35
2023/12/29 11:23:41;;;;;;;;;;;9.60;99.90;;;;;;5092744;28;19990;-34
2023/12/29 11:26:08;;;;;;;;;;;9.60;99.90;;;;;;5076119;28;20001;-33
2023/12/29 11:28:34;;;;;;;;;;;9.70;99.90;;;;;;5076083;28;19941;-34
2023/12/29 11:31:01;;;;;;;;;;;9.70;99.90;;;;;;5076152;28;20386;-35
2023/12/29 11:33:30;;;;;;;;;;;9.70;99.90;;;;;;5075737;28;19983;-35
2023/12/29 11:35:57;;;;;;;;;;;9.70;99.90;;;;;;5091694;28;19940;-34
2023/12/29 11:38:30;;;;;;;;;;;9.80;99.90;;;;;;5075549;28;19961;-34
2023/12/29 11:40:59;;;;;;;;;;;9.80;99.90;;;;;;5075918;28;20049;-34
2023/12/29 11:43:25;;;;;;;;;;;9.80;99.90;;;;;;5075572;28;19996;-33
2023/12/29 11:45:52;;;;;;;;;;;9.80;99.90;;;;;;5075821;28;19943;-34
2023/12/29 11:48:34;;;;;;;;;;;9.80;99.90;;;;;;5075161;28;19941;-34
2023/12/29 11:51:02;;;;;;;;;;;9.80;99.90;;;;;;5073814;28;19981;-35
2023/12/29 11:53:31;;;;;;;;;;;9.70;99.90;;;;;;5074646;28;19977;-35
2023/12/29 11:55:58;;;;;;;;;;;9.70;99.90;;;;;;5075849;28;19940;-35
2023/12/29 11:58:25;;;;;;;;;;;9.70;99.90;;;;;;5075713;28;20453;-35
2023/12/29 12:00:52;;;;;;;;;;;9.70;99.90;;;;;;5074960;28;19952;-34
2023/12/29 12:03:20;;;;;;;;;;;9.70;99.90;;;;;;5093532;28;19945;-35
2023/12/29 12:05:47;;;;;;;;;;;9.60;99.90;;;;;;5079555;28;19958;-35
2023/12/29 12:08:28;;;;;;;;;;;9.60;99.90;;;;;;5073109;28;19943;-35
2023/12/29 12:10:55;;;;;;;;;;;9.60;99.90;;;;;;5074240;28;19937;-34
2023/12/29 12:13:40;;;;;;;;;;;9.60;99.90;;;;;;5075125;28;19937;-34
2023/12/29 12:16:07;;;;;;;;;;;9.60;99.90;;;;;;5074971;28;19936;-34
2023/12/29 12:18:33;;;;;;;;;;;9.60;99.90;;;;;;5074974;28;20350;-33
2023/12/29 12:21:00;;;;;;;;;;;9.60;99.90;;;;;;5073559;28;20417;-35
2023/12/29 12:23:28;;;;;;;;;;;9.60;99.90;;;;;;5074797;28;20008;-35
2023/12/29 12:25:57;;;;;;;;;;;9.60;99.90;;;;;;5074588;28;19941;-34
2023/12/29 12:28:24;;;;;;;;;;;9.60;99.90;;;;;;5093147;28;19941;-35
2023/12/29 12:30:50;;;;;;;;;;;9.60;99.90;;;;;;5074601;28;20006;-35
2023/12/29 12:33:17;;;;;;;;;;;9.60;99.90;;;;;;5075269;28;20469;-35
2023/12/29 12:35:46;;;;;;;;;;;9.60;99.90;;;;;;5093188;28;19965;-34
2023/12/29 12:38:13;;;;;;;;;;;9.60;99.90;;;;;;5074489;28;20423;-33
2023/12/29 12:40:41;;;;;;;;;;;9.60;99.90;;;;;;5074171;28;19949;-35
2023/12/29 12:43:08;;;;;;;;;;;9.60;99.90;;;;;;5092846;28;19992;-37
2023/12/29 12:45:34;;;;;;;;;;;9.60;99.90;;;;;;5074804;28;19962;-34
2023/12/29 12:48:02;;;;;;;;;;;9.60;99.90;;;;;;5075154;28;19945;-35
2023/12/29 12:50:29;;;;;;;;;;;9.60;99.90;;;;;;5091716;28;19936;-34
2023/12/29 12:52:57;;;;;;;;;;;9.60;99.90;;;;;;5073910;28;20410;-34
2023/12/29 12:55:24;;;;;;;;;;;9.60;99.90;;;;;;5092830;28;19985;-35
2023/12/29 12:57:52;;;;;;;;;;;9.60;99.90;;;;;;5074833;28;19942;-34
2023/12/29 13:00:19;;;;;;;;;;;9.60;99.90;;;;;;5091763;28;19941;-33
2023/12/29 13:02:45;;;;;;;;;;;9.60;99.90;;;;;;5073477;28;20004;-34
2023/12/29 13:05:12;;;;;;;;;;;9.60;99.90;;;;;;5091116;28;19942;-34
2023/12/29 13:07:39;;;;;;;;;;;9.60;99.90;;;;;;5073239;28;19939;-35
2023/12/29 13:10:06;;;;;;;;;;;9.60;99.90;;;;;;5072538;28;19945;-33
2023/12/29 13:12:33;;;;;;;;;;;9.60;99.90;;;;;;5073239;28;19934;-34
2023/12/29 13:15:08;;;;;;;;;;;9.50;99.90;;;;;;5072506;28;19935;-36
2023/12/29 13:17:34;;;;;;;;;;;9.50;99.90;;;;;;5073802;28;19949;-35
2023/12/29 13:20:02;;;;;;;;;;;9.50;99.90;;;;;;5090415;28;19940;-34
2023/12/29 13:22:28;;;;;;;;;;;9.50;99.90;;;;;;5072715;28;19964;-35
2023/12/29 13:24:55;;;;;;;;;;;9.40;99.90;;;;;;5074014;28;19980;-34
2023/12/29 13:27:22;;;;;;;;;;;9.40;99.90;;;;;;5072520;28;19939;-34
2023/12/29 13:29:48;;;;;;;;;;;9.40;99.90;;;;;;5072264;28;19938;-36
2023/12/29 13:32:17;;;;;;;;;;;9.30;99.90;;;;;;5073175;28;20354;-34
2023/12/29 13:34:49;;;;;;;;;;;9.30;99.90;;;;;;5090572;28;20311;-35
2023/12/29 13:37:18;;;;;;;;;;;9.30;99.90;;;;;;5073770;28;19936;-34
2023/12/29 13:39:45;;;;;;;;;;;9.30;99.90;;;;;;5092234;28;19940;-34
2023/12/29 13:42:12;;;;;;;;;;;9.30;99.90;;;;;;5073212;28;19995;-34
2023/12/29 13:44:39;;;;;;;;;;;9.30;99.90;;;;;;5073341;28;20008;-33
2023/12/29 13:47:05;;;;;;;;;;;9.20;99.90;;;;;;5073668;28;20356;-35
2023/12/29 13:49:36;;;;;;;;;;;9.20;99.90;;;;;;5091534;28;19947;-34
2023/12/29 13:52:03;;;;;;;;;;;9.20;99.90;;;;;;5072970;28;20410;-33
2023/12/29 13:54:29;;;;;;;;;;;9.20;99.90;;;;;;5071833;28;20009;-34
2023/12/29 13:56:56;;;;;;;;;;;9.20;99.90;;;;;;5072406;28;19987;-34
2023/12/29 13:59:32;;;;;;;;;;;9.10;99.90;;;;;;5073018;28;19981;-34
2023/12/29 14:01:59;;;;;;;;;;;9.10;99.90;;;;;;5074558;28;19950;-35
2023/12/29 14:04:25;;;;;;;;;;;9.10;99.90;;;;;;5079961;28;19938;-35
2023/12/29 14:06:55;;;;;;;;;;;9.10;99.90;;;;;;5077464;28;20000;-34
2023/12/29 14:09:21;;;;;;;;;;;9.00;99.90;;;;;;5076085;28;20385;-35
2023/12/29 14:11:48;;;;;;;;;;;9.10;99.90;;;;;;5076651;28;19964;-35
2023/12/29 14:14:15;;;;;;;;;;;9.10;99.90;;;;;;5077975;28;19960;-35
2023/12/29 14:16:41;;;;;;;;;;;9.10;99.90;;;;;;5094651;28;19986;-34
2023/12/29 14:19:08;;;;;;;;;;;9.10;99.90;;;;;;5076119;28;19982;-34
2023/12/29 14:21:35;;;;;;;;;;;9.00;99.90;;;;;;5094028;28;20328;-35
2023/12/29 14:24:03;;;;;;;;;;;9.10;99.90;;;;;;5076420;28;19993;-33
2023/12/29 14:26:30;;;;;;;;;;;9.10;99.90;;;;;;5076463;28;19970;-35
2023/12/29 14:29:01;;;;;;;;;;;9.00;99.90;;;;;;5093798;28;19936;-33